| time (UTC) | temp F | wind direction | speed MPH | gust MPH | rain 1hr in | rain 24hr in | rain mn in | humidity % | barometer mb |
| 20260904091344 | 46 | 216 | 0.0 | 2.0 | 0.00 | 0.11 | 0.11 | 87 | 1004.2 |
| 20260904090844 | 46 | 88 | 1.0 | 3.0 | 0.01 | 0.11 | 0.11 | 88 | 1004.2 |
| 20260904090446 | 46 | 129 | 1.0 | 1.0 | 0.01 | 0.11 | 0.11 | 88 | 1004.2 |
| 20260904090345 | 46 | 70 | 0.0 | 1.0 | 0.01 | 0.11 | 0.11 | 88 | 1004.2 |
| 20260904085845 | 45 | 251 | 0.0 | 1.0 | 0.02 | 0.11 | 0.11 | 88 | 1004.2 |
| 20260904085345 | 45 | 157 | 0.0 | 2.0 | 0.03 | 0.11 | 0.11 | 88 | 1004.1 |
| 20260904084844 | 45 | 108 | 0.0 | 2.0 | 0.05 | 0.11 | 0.11 | 88 | 1004.2 |
| 20260904084345 | 45 | 255 | 0.0 | 0.0 | 0.05 | 0.11 | 0.11 | 89 | 1004.2 |
| 20260904084246 | 44 | 255 | 0.0 | 0.0 | 0.05 | 0.11 | 0.11 | 89 | 1004.2 |
| 20260904083845 | 44 | 255 | 0.0 | 0.0 | 0.06 | 0.11 | 0.11 | 89 | 1004.3 |
| 20260904083345 | 44 | 255 | 0.0 | 4.0 | 0.06 | 0.11 | 0.11 | 89 | 1004.2 |
| 20260904083146 | 44 | 68 | 0.0 | 2.0 | 0.06 | 0.11 | 0.11 | 89 | 1004.3 |
| 20260904082845 | 44 | 68 | 0.0 | 2.0 | 0.07 | 0.11 | 0.11 | 90 | 1004.3 |
| 20260904082345 | 44 | 75 | 0.0 | 1.0 | 0.07 | 0.11 | 0.11 | 89 | 1004.3 |
| 20260904082046 | 44 | 63 | 0.0 | 1.0 | 0.08 | 0.11 | 0.11 | 89 | 1004.3 |
| 20260904081845 | 44 | 63 | 0.0 | 1.0 | 0.08 | 0.11 | 0.11 | 89 | 1004.3 |
| 20260904081345 | 44 | 165 | 0.0 | 4.0 | 0.09 | 0.11 | 0.11 | 89 | 1004.3 |
| 20260904080946 | 44 | 255 | 0.0 | 0.0 | 0.08 | 0.10 | 0.10 | 90 | 1004.4 |
| 20260904080845 | 44 | 255 | 0.0 | 0.0 | 0.09 | 0.10 | 0.10 | 90 | 1004.4 |
| 20260904080345 | 43 | 255 | 0.0 | 0.0 | 0.09 | 0.10 | 0.10 | 90 | 1004.4 |
| 20260904075845 | 43 | 255 | 0.0 | 0.0 | 0.08 | 0.09 | 0.09 | 89 | 1004.4 |
| 20260904075345 | 43 | 255 | 0.0 | 0.0 | 0.08 | 0.08 | 0.08 | 89 | 1004.4 |
| 20260904074845 | 43 | 255 | 0.0 | 0.0 | 0.06 | 0.06 | 0.06 | 89 | 1004.4 |
| 20260904074746 | 43 | 255 | 0.0 | 0.0 | 0.06 | 0.06 | 0.06 | 89 | 1004.4 |
| 20260904074345 | 43 | 255 | 0.0 | 0.0 | 0.06 | 0.06 | 0.06 | 88 | 1004.4 |
| 20260904073845 | 43 | 255 | 0.0 | 0.0 | 0.05 | 0.05 | 0.05 | 88 | 1004.5 |
| 20260904073646 | 43 | 255 | 0.0 | 0.0 | 0.05 | 0.05 | 0.05 | 88 | 1004.5 |
| 20260904073345 | 43 | 255 | 0.0 | 0.0 | 0.05 | 0.05 | 0.05 | 88 | 1004.5 |
| 20260904072845 | 43 | 282 | 0.0 | 1.0 | 0.04 | 0.04 | 0.04 | 88 | 1004.5 |
| 20260904072546 | 43 | 281 | 1.0 | 1.0 | 0.04 | 0.04 | 0.04 | 88 | 1004.4 |
| 20260904072345 | 43 | 291 | 0.0 | 1.0 | 0.04 | 0.04 | 0.04 | 87 | 1004.4 |
| 20260904071845 | 44 | 247 | 0.0 | 2.0 | 0.03 | 0.03 | 0.03 | 87 | 1004.4 |
| 20260904071446 | 44 | 271 | 0.0 | 0.0 | 0.02 | 0.02 | 0.02 | 87 | 1004.4 |
| 20260904071345 | 44 | 271 | 0.0 | 0.0 | 0.02 | 0.02 | 0.02 | 87 | 1004.4 |
| 20260904070845 | 44 | 271 | 0.0 | 0.0 | 0.01 | 0.01 | 0.01 | 87 | 1004.4 |
| 20260904070345 | 44 | 271 | 0.0 | 0.0 | 0.01 | 0.01 | 0.01 | 86 | 1004.4 |
| 20260904065845 | 44 | 271 | 0.0 | 0.0 | 0.01 | 0.01 | 0.01 | 86 | 1004.4 |
| 20260904065345 | 44 | 271 | 0.0 | 0.0 | 0.00 | 0.00 | 0.00 | 86 | 1004.4 |
| 20260904065246 | 44 | 271 | 0.0 | 0.0 | 0.00 | 0.00 | 0.00 | 86 | 1004.3 |
| 20260904064845 | 44 | 271 | 0.0 | 0.0 | 0.00 | 0.00 | 0.00 | 87 | 1004.4 |
| 20260904064345 | 44 | 271 | 0.0 | 0.0 | 0.00 | 0.00 | 0.00 | 86 | 1004.3 |
| 20260904064146 | 44 | 271 | 0.0 | 0.0 | 0.00 | 0.00 | 0.00 | 87 | 1004.3 |
| 20260904063845 | 44 | 271 | 0.0 | 0.0 | 0.00 | 0.00 | 0.00 | 87 | 1004.3 |
| 20260904063345 | 44 | 271 | 0.0 | 0.0 | 0.00 | 0.00 | 0.00 | 87 | 1004.3 |
| 20260904063046 | 44 | 271 | 0.0 | 0.0 | 0.00 | 0.00 | 0.00 | 87 | 1004.3 |
| 20260904062845 | 44 | 271 | 0.0 | 0.0 | 0.00 | 0.00 | 0.00 | 87 | 1004.3 |
| 20260904062345 | 43 | 271 | 0.0 | 0.0 | 0.00 | 0.00 | 0.00 | 88 | 1004.4 |
| 20260904061946 | 43 | 271 | 0.0 | 0.0 | 0.00 | 0.00 | 0.00 | 88 | 1004.4 |
| 20260904061845 | 43 | 271 | 0.0 | 0.0 | 0.00 | 0.00 | 0.00 | 88 | 1004.4 |
| 20260904061345 | 43 | 271 | 0.0 | 0.0 | 0.00 | 0.00 | 0.00 | 88 | 1004.5 |
| 20260904060845 | 43 | 271 | 0.0 | 0.0 | 0.00 | 0.00 | 0.00 | 88 | 1004.5 |
| 20260904060345 | 43 | 271 | 0.0 | 0.0 | 0.00 | 0.00 | 0.00 | 87 | 1004.5 |
| 20260904055845 | 43 | 271 | 0.0 | 0.0 | 0.00 | 0.00 | 0.00 | 87 | 1004.5 |
| 20260904055746 | 43 | 271 | 0.0 | 0.0 | 0.00 | 0.00 | 0.00 | 87 | 1004.6 |
| 20260904055345 | 43 | 271 | 0.0 | 0.0 | 0.00 | 0.00 | 0.00 | 88 | 1004.5 |
| 20260904054845 | 43 | 271 | 0.0 | 0.0 | 0.00 | 0.00 | 0.00 | 88 | 1004.5 |
| 20260904054646 | 42 | 271 | 0.0 | 0.0 | 0.00 | 0.00 | 0.00 | 88 | 1004.5 |
| 20260904054345 | 42 | 271 | 0.0 | 0.0 | 0.00 | 0.00 | 0.00 | 88 | 1004.6 |
| 20260904053845 | 42 | 271 | 0.0 | 0.0 | 0.00 | 0.00 | 0.00 | 87 | 1004.7 |
| 20260904053546 | 42 | 271 | 0.0 | 0.0 | 0.00 | 0.00 | 0.00 | 87 | 1004.7 |
| 20260904053345 | 42 | 271 | 0.0 | 0.0 | 0.00 | 0.00 | 0.00 | 87 | 1004.8 |
| 20260904052845 | 42 | 271 | 0.0 | 0.0 | 0.00 | 0.00 | 0.00 | 87 | 1005.0 |
| 20260904052447 | 42 | 271 | 0.0 | 0.0 | 0.00 | 0.00 | 0.00 | 87 | 1005.0 |
| 20260904052345 | 42 | 271 | 0.0 | 0.0 | 0.00 | 0.00 | 0.00 | 87 | 1005.0 |
| 20260904051845 | 42 | 271 | 0.0 | 0.0 | 0.00 | 0.00 | 0.00 | 87 | 1005.0 |
| 20260904051345 | 42 | 271 | 0.0 | 0.0 | 0.00 | 0.00 | 0.00 | 87 | 1005.1 |
| 20260904050845 | 42 | 149 | 0.0 | 0.0 | 0.00 | 0.00 | 0.00 | 87 | 1005.1 |
| 20260904050345 | 42 | 149 | 0.0 | 0.0 | 0.00 | 0.00 | 0.00 | 87 | 1005.1 |
| 20260904050246 | 42 | 149 | 0.0 | 0.0 | 0.00 | 0.00 | 0.00 | 88 | 1005.2 |
| 20260904045845 | 42 | 149 | 0.0 | 0.0 | 0.00 | 0.00 | 0.00 | 87 | 1005.1 |
| 20260904045345 | 42 | 149 | 0.0 | 0.0 | 0.00 | 0.00 | 0.00 | 87 | 1005.2 |
| 20260904045146 | 42 | 149 | 0.0 | 0.0 | 0.00 | 0.00 | 0.00 | 87 | 1005.2 |
| 20260904044845 | 42 | 149 | 0.0 | 0.0 | 0.00 | 0.00 | 0.00 | 87 | 1005.2 |
| 20260904044345 | 42 | 149 | 0.0 | 0.0 | 0.00 | 0.00 | 0.00 | 87 | 1005.2 |
| 20260904044046 | 42 | 149 | 0.0 | 0.0 | 0.00 | 0.00 | 0.00 | 87 | 1005.2 |
| 20260904043845 | 42 | 149 | 0.0 | 0.0 | 0.00 | 0.00 | 0.00 | 87 | 1005.2 |
| 20260904043345 | 42 | 149 | 0.0 | 0.0 | 0.00 | 0.00 | 0.00 | 87 | 1005.1 |
| 20260904042946 | 42 | 149 | 0.0 | 0.0 | 0.00 | 0.00 | 0.00 | 87 | 1005.1 |
| 20260904042845 | 42 | 149 | 0.0 | 0.0 | 0.00 | 0.00 | 0.00 | 87 | 1005.1 |
| 20260904042345 | 42 | 149 | 0.0 | 0.0 | 0.00 | 0.00 | 0.00 | 87 | 1005.2 |
| 20260904041845 | 42 | 149 | 0.0 | 0.0 | 0.00 | 0.00 | 0.00 | 87 | 1005.2 |
| 20260904041345 | 42 | 149 | 0.0 | 0.0 | 0.00 | 0.00 | 0.00 | 87 | 1005.2 |
| 20260904040845 | 42 | 149 | 0.0 | 0.0 | 0.00 | 0.00 | 0.00 | 88 | 1005.2 |
| 20260904040746 | 42 | 149 | 0.0 | 0.0 | 0.00 | 0.00 | 0.00 | 88 | 1005.2 |
| 20260904040345 | 42 | 149 | 0.0 | 0.0 | 0.00 | 0.00 | 0.00 | 88 | 1005.2 |
| 20260904035845 | 42 | 149 | 0.0 | 0.0 | 0.00 | 0.00 | 0.00 | 88 | 1005.2 |
| 20260904035646 | 42 | 149 | 0.0 | 0.0 | 0.00 | 0.00 | 0.00 | 88 | 1005.2 |
| 20260904035345 | 42 | 149 | 0.0 | 0.0 | 0.00 | 0.00 | 0.00 | 88 | 1005.2 |
| 20260904034845 | 42 | 149 | 0.0 | 0.0 | 0.00 | 0.00 | 0.00 | 88 | 1005.1 |
| 20260904034546 | 42 | 149 | 0.0 | 0.0 | 0.00 | 0.00 | 0.00 | 88 | 1005.1 |
| 20260904034345 | 42 | 149 | 0.0 | 0.0 | 0.00 | 0.00 | 0.00 | 88 | 1005.1 |
| 20260904033845 | 42 | 149 | 0.0 | 0.0 | 0.00 | 0.00 | 0.00 | 88 | 1005.1 |
| 20260904033446 | 42 | 149 | 0.0 | 0.0 | 0.00 | 0.00 | 0.00 | 88 | 1005.1 |
| 20260904033345 | 42 | 149 | 0.0 | 0.0 | 0.00 | 0.00 | 0.00 | 88 | 1005.1 |
| 20260904032845 | 42 | 149 | 0.0 | 0.0 | 0.00 | 0.00 | 0.00 | 88 | 1005.2 |
| 20260904032345 | 42 | 149 | 0.0 | 0.0 | 0.00 | 0.00 | 0.00 | 88 | 1005.2 |
| 20260904031845 | 42 | 149 | 0.0 | 0.0 | 0.00 | 0.00 | 0.00 | 88 | 1005.2 |
| 20260904031345 | 42 | 149 | 0.0 | 0.0 | 0.00 | 0.00 | 0.00 | 88 | 1005.3 |
| 20260904031246 | 42 | 149 | 0.0 | 0.0 | 0.00 | 0.00 | 0.00 | 88 | 1005.3 |
| 20260904030845 | 42 | 149 | 0.0 | 0.0 | 0.00 | 0.00 | 0.00 | 88 | 1005.3 |
| 20260904030345 | 42 | 149 | 0.0 | 0.0 | 0.00 | 0.00 | 0.00 | 88 | 1005.3 |
| 20260904030151 | 42 | 149 | 0.0 | 0.0 | 0.00 | 0.00 | 0.00 | 88 | 1005.4 |
| 20260904025845 | 42 | 149 | 0.0 | 0.0 | 0.00 | 0.00 | 0.00 | 88 | 1005.4 |
| 20260904025345 | 42 | 149 | 0.0 | 0.0 | 0.00 | 0.00 | 0.00 | 88 | 1005.3 |
| 20260904025046 | 42 | 149 | 0.0 | 0.0 | 0.00 | 0.00 | 0.00 | 88 | 1005.3 |
| 20260904024845 | 42 | 149 | 0.0 | 0.0 | 0.00 | 0.00 | 0.00 | 88 | 1005.3 |
| 20260904024345 | 42 | 149 | 0.0 | 0.0 | 0.00 | 0.00 | 0.00 | 88 | 1005.4 |
| 20260904023946 | 42 | 149 | 0.0 | 0.0 | 0.00 | 0.00 | 0.00 | 88 | 1005.5 |
| 20260904023845 | 42 | 149 | 0.0 | 0.0 | 0.00 | 0.00 | 0.00 | 88 | 1005.5 |
| 20260904023345 | 42 | 149 | 0.0 | 1.0 | 0.00 | 0.00 | 0.00 | 88 | 1005.5 |
| 20260904022845 | 42 | 168 | 0.0 | 1.0 | 0.00 | 0.00 | 0.00 | 88 | 1005.6 |
| 20260904022345 | 41 | 28 | 0.0 | 0.0 | 0.00 | 0.00 | 0.00 | 87 | 1005.6 |
| 20260904021845 | 41 | 28 | 0.0 | 0.0 | 0.00 | 0.00 | 0.00 | 87 | 1005.6 |
| 20260904021746 | 41 | 28 | 0.0 | 0.0 | 0.00 | 0.00 | 0.00 | 87 | 1005.6 |
| 20260904021345 | 41 | 28 | 0.0 | 0.0 | 0.00 | 0.00 | 0.00 | 87 | 1005.7 |
| 20260904020845 | 41 | 28 | 0.0 | 0.0 | 0.00 | 0.00 | 0.00 | 87 | 1005.7 |
| 20260904020646 | 41 | 28 | 0.0 | 0.0 | 0.00 | 0.00 | 0.00 | 87 | 1005.7 |
| 20260904020345 | 41 | 28 | 0.0 | 0.0 | 0.00 | 0.00 | 0.00 | 87 | 1005.9 |
| 20260904015845 | 41 | 28 | 0.0 | 0.0 | 0.00 | 0.00 | 0.00 | 87 | 1005.9 |
| 20260904015546 | 41 | 28 | 0.0 | 0.0 | 0.00 | 0.00 | 0.00 | 87 | 1005.9 |
| 20260904015345 | 41 | 28 | 0.0 | 0.0 | 0.00 | 0.00 | 0.00 | 87 | 1006.0 |
| 20260904014845 | 41 | 28 | 0.0 | 0.0 | 0.00 | 0.00 | 0.00 | 87 | 1006.1 |
| 20260904014446 | 41 | 28 | 0.0 | 0.0 | 0.00 | 0.00 | 0.00 | 87 | 1006.0 |
| 20260904014345 | 41 | 28 | 0.0 | 0.0 | 0.00 | 0.00 | 0.00 | 87 | 1006.0 |
| 20260904013845 | 41 | 28 | 0.0 | 0.0 | 0.00 | 0.00 | 0.00 | 87 | 1006.1 |
| 20260904013345 | 41 | 28 | 0.0 | 0.0 | 0.00 | 0.00 | 0.00 | 87 | 1006.1 |
| 20260904012845 | 41 | 28 | 0.0 | 0.0 | 0.00 | 0.00 | 0.00 | 87 | 1006.1 |
| 20260904012345 | 41 | 28 | 0.0 | 0.0 | 0.00 | 0.00 | 0.00 | 87 | 1006.1 |
| 20260904012246 | 41 | 28 | 0.0 | 0.0 | 0.00 | 0.00 | 0.00 | 87 | 1006.1 |
| 20260904011845 | 41 | 28 | 0.0 | 0.0 | 0.00 | 0.00 | 0.00 | 87 | 1006.2 |
| 20260904011345 | 41 | 28 | 0.0 | 0.0 | 0.00 | 0.00 | 0.00 | 87 | 1006.1 |
| 20260904011146 | 41 | 28 | 0.0 | 0.0 | 0.00 | 0.00 | 0.00 | 87 | 1006.1 |
| 20260904010845 | 41 | 28 | 0.0 | 0.0 | 0.00 | 0.00 | 0.00 | 87 | 1006.2 |
| 20260904010345 | 41 | 28 | 0.0 | 0.0 | 0.00 | 0.00 | 0.00 | 87 | 1006.3 |
| 20260904010049 | 41 | 28 | 0.0 | 0.0 | 0.00 | 0.00 | 0.00 | 87 | 1006.3 |
| 20260904005845 | 41 | 28 | 0.0 | 0.0 | 0.00 | 0.00 | 0.00 | 87 | 1006.3 |
| 20260904005345 | 41 | 28 | 0.0 | 0.0 | 0.00 | 0.00 | 0.00 | 87 | 1006.3 |
| 20260904004946 | 41 | 28 | 0.0 | 0.0 | 0.00 | 0.00 | 0.00 | 87 | 1006.3 |
| 20260904004845 | 41 | 28 | 0.0 | 0.0 | 0.00 | 0.00 | 0.00 | 87 | 1006.4 |
| 20260904004345 | 41 | 28 | 0.0 | 0.0 | 0.00 | 0.00 | 0.00 | 87 | 1006.4 |
| 20260904003845 | 41 | 28 | 0.0 | 0.0 | 0.00 | 0.00 | 0.00 | 87 | 1006.5 |
| 20260904003345 | 41 | 28 | 0.0 | 0.0 | 0.00 | 0.00 | 0.00 | 87 | 1006.5 |
| 20260904002845 | 41 | 28 | 0.0 | 0.0 | 0.00 | 0.00 | 0.00 | 88 | 1006.5 |
| 20260904002746 | 41 | 28 | 0.0 | 0.0 | 0.00 | 0.00 | 0.00 | 88 | 1006.5 |
| 20260904002345 | 41 | 28 | 0.0 | 0.0 | 0.00 | 0.00 | 0.00 | 88 | 1006.4 |
| 20260904001845 | 41 | 28 | 0.0 | 0.0 | 0.00 | 0.00 | 0.00 | 88 | 1006.4 |
| 20260904001646 | 41 | 28 | 0.0 | 0.0 | 0.00 | 0.00 | 0.00 | 88 | 1006.4 |
| 20260904001345 | 41 | 28 | 0.0 | 0.0 | 0.00 | 0.00 | 0.00 | 88 | 1006.5 |
| 20260904000845 | 41 | 28 | 0.0 | 0.0 | 0.00 | 0.00 | 0.00 | 88 | 1006.5 |
| 20260904000546 | 41 | 28 | 0.0 | 0.0 | 0.00 | 0.00 | 0.00 | 88 | 1006.6 |
| 20260904000347 | 41 | 28 | 0.0 | 0.0 | 0.00 | 0.00 | 0.00 | 88 | 1006.5 |
| 20260903235846 | 40 | 28 | 0.0 | 2.0 | 0.00 | 0.00 | 0.00 | 89 | 1006.6 |
| 20260903235446 | 40 | 36 | 0.0 | 1.0 | 0.00 | 0.00 | 0.00 | 89 | 1006.7 |
| 20260903235345 | 40 | 40 | 0.0 | 2.0 | 0.00 | 0.00 | 0.00 | 88 | 1006.9 |
| 20260903234845 | 40 | 45 | 0.0 | 0.0 | 0.00 | 0.00 | 0.00 | 88 | 1006.9 |
| 20260903234345 | 40 | 45 | 0.0 | 0.0 | 0.00 | 0.00 | 0.00 | 88 | 1007.0 |
| 20260903233845 | 40 | 45 | 0.0 | 1.0 | 0.00 | 0.00 | 0.00 | 89 | 1007.0 |
| 20260903233346 | 40 | 42 | 0.0 | 2.0 | 0.00 | 0.00 | 0.00 | 89 | 1007.1 |
| 20260903233246 | 40 | 50 | 1.0 | 2.0 | 0.00 | 0.00 | 0.00 | 89 | 1007.1 |
| 20260903232845 | 40 | 50 | 0.0 | 1.0 | 0.00 | 0.00 | 0.00 | 89 | 1007.1 |
| 20260903232345 | 40 | 39 | 0.0 | 0.0 | 0.00 | 0.00 | 0.00 | 89 | 1007.1 |
| 20260903232146 | 40 | 39 | 0.0 | 0.0 | 0.00 | 0.00 | 0.00 | 88 | 1007.1 |
| 20260903231846 | 40 | 39 | 0.0 | 1.0 | 0.00 | 0.00 | 0.00 | 88 | 1007.2 |
| 20260903231345 | 40 | 36 | 0.0 | 1.0 | 0.00 | 0.00 | 0.00 | 88 | 1007.3 |
| 20260903231046 | 40 | 53 | 0.0 | 0.0 | 0.00 | 0.00 | 0.00 | 88 | 1007.3 |
| 20260903230846 | 39 | 53 | 0.0 | 0.0 | 0.00 | 0.00 | 0.00 | 88 | 1007.3 |
| 20260903230346 | 40 | 53 | 0.0 | 0.0 | 0.00 | 0.00 | 0.00 | 88 | 1007.4 |
| 20260903225947 | 39 | 53 | 0.0 | 1.0 | 0.00 | 0.00 | 0.00 | 88 | 1007.5 |
| 20260903225846 | 39 | 53 | 0.0 | 1.0 | 0.00 | 0.00 | 0.00 | 88 | 1007.5 |
| 20260903225346 | 39 | 49 | 0.0 | 0.0 | 0.00 | 0.00 | 0.00 | 88 | 1007.5 |
| 20260903224846 | 39 | 49 | 0.0 | 1.0 | 0.00 | 0.00 | 0.00 | 87 | 1007.6 |
| 20260903224346 | 39 | 37 | 0.0 | 0.0 | 0.00 | 0.00 | 0.00 | 87 | 1007.6 |
| 20260903223846 | 40 | 37 | 0.0 | 0.0 | 0.00 | 0.00 | 0.00 | 87 | 1007.8 |
| 20260903223747 | 40 | 37 | 0.0 | 0.0 | 0.00 | 0.00 | 0.00 | 87 | 1007.6 |
| 20260903223346 | 40 | 37 | 0.0 | 0.0 | 0.00 | 0.00 | 0.00 | 87 | 1007.6 |
| 20260903222846 | 40 | 37 | 0.0 | 1.0 | 0.00 | 0.00 | 0.00 | 87 | 1007.6 |
| 20260903222647 | 40 | 37 | 0.0 | 1.0 | 0.00 | 0.00 | 0.00 | 87 | 1007.6 |
| 20260903222346 | 40 | 30 | 0.0 | 2.0 | 0.00 | 0.00 | 0.00 | 87 | 1007.6 |
| 20260903221846 | 40 | 37 | 1.0 | 2.0 | 0.00 | 0.00 | 0.00 | 87 | 1007.5 |
| 20260903221547 | 40 | 28 | 0.0 | 2.0 | 0.00 | 0.00 | 0.00 | 87 | 1007.6 |
| 20260903221346 | 40 | 28 | 1.0 | 3.0 | 0.00 | 0.00 | 0.00 | 87 | 1007.5 |
| 20260903220846 | 40 | 57 | 2.0 | 3.0 | 0.00 | 0.00 | 0.00 | 87 | 1007.6 |
| 20260903220447 | 40 | 49 | 1.0 | 2.0 | 0.00 | 0.00 | 0.00 | 87 | 1007.6 |
| 20260903220346 | 40 | 39 | 1.0 | 2.0 | 0.00 | 0.00 | 0.00 | 86 | 1007.8 |
| 20260903215846 | 40 | 66 | 1.0 | 2.0 | 0.00 | 0.00 | 0.00 | 86 | 1007.8 |
| 20260903215346 | 40 | 109 | 1.0 | 1.0 | 0.00 | 0.00 | 0.00 | 85 | 1007.8 |
| 20260903214846 | 40 | 35 | 0.0 | 0.0 | 0.00 | 0.00 | 0.00 | 84 | 1007.9 |
| 20260903214346 | 40 | 35 | 0.0 | 0.0 | 0.00 | 0.00 | 0.00 | 85 | 1007.9 |
| 20260903214247 | 40 | 35 | 0.0 | 0.0 | 0.00 | 0.00 | 0.00 | 85 | 1007.9 |
| 20260903213846 | 40 | 35 | 0.0 | 0.0 | 0.00 | 0.00 | 0.00 | 84 | 1007.8 |
| 20260903213346 | 40 | 35 | 0.0 | 0.0 | 0.00 | 0.00 | 0.00 | 85 | 1007.9 |
| 20260903213147 | 40 | 35 | 0.0 | 0.0 | 0.00 | 0.00 | 0.00 | 84 | 1007.9 |
| 20260903212846 | 40 | 35 | 0.0 | 0.0 | 0.00 | 0.00 | 0.00 | 84 | 1007.9 |
| 20260903212346 | 40 | 35 | 0.0 | 0.0 | 0.00 | 0.00 | 0.00 | 83 | 1007.9 |
| 20260903212047 | 40 | 35 | 0.0 | 0.0 | 0.00 | 0.00 | 0.00 | 83 | 1007.9 |
| 20260903211846 | 40 | 35 | 0.0 | 0.0 | 0.00 | 0.00 | 0.00 | 82 | 1007.9 |
| 20260903211346 | 41 | 35 | 0.0 | 0.0 | 0.00 | 0.00 | 0.00 | 82 | 1007.9 |
| 20260903210947 | 41 | 35 | 0.0 | 0.0 | 0.00 | 0.00 | 0.00 | 82 | 1007.9 |
| 20260903210846 | 41 | 35 | 0.0 | 0.0 | 0.00 | 0.00 | 0.00 | 81 | 1008.0 |
| 20260903210346 | 41 | 35 | 0.0 | 0.0 | 0.00 | 0.00 | 0.00 | 81 | 1007.9 |
| 20260903205846 | 41 | 35 | 0.0 | 0.0 | 0.00 | 0.00 | 0.00 | 81 | 1008.0 |
| 20260903205346 | 41 | 35 | 0.0 | 0.0 | 0.00 | 0.00 | 0.00 | 80 | 1007.9 |
| 20260903204846 | 42 | 35 | 0.0 | 0.0 | 0.00 | 0.00 | 0.00 | 79 | 1007.9 |
| 20260903204747 | 42 | 35 | 0.0 | 0.0 | 0.00 | 0.00 | 0.00 | 79 | 1007.9 |
| 20260903204346 | 42 | 35 | 0.0 | 0.0 | 0.00 | 0.00 | 0.00 | 78 | 1007.9 |
| 20260903203846 | 42 | 70 | 0.0 | 0.0 | 0.00 | 0.00 | 0.00 | 78 | 1007.9 |
| 20260903203647 | 42 | 70 | 0.0 | 0.0 | 0.00 | 0.00 | 0.00 | 78 | 1008.0 |
| 20260903203346 | 42 | 70 | 0.0 | 0.0 | 0.00 | 0.00 | 0.00 | 78 | 1008.0 |
| 20260903202846 | 43 | 70 | 0.0 | 0.0 | 0.00 | 0.00 | 0.00 | 77 | 1008.0 |
| 20260903202547 | 43 | 70 | 0.0 | 0.0 | 0.00 | 0.00 | 0.00 | 77 | 1008.0 |
| 20260903202346 | 43 | 37 | 0.0 | 0.0 | 0.00 | 0.00 | 0.00 | 77 | 1008.0 |
| 20260903201846 | 43 | 37 | 0.0 | 1.0 | 0.00 | 0.00 | 0.00 | 76 | 1008.0 |
| 20260903201447 | 43 | 196 | 0.0 | 1.0 | 0.00 | 0.00 | 0.00 | 76 | 1008.0 |
| 20260903201346 | 43 | 196 | 0.0 | 1.0 | 0.00 | 0.00 | 0.00 | 76 | 1008.1 |
| 20260903200846 | 44 | 88 | 0.0 | 0.0 | 0.00 | 0.00 | 0.00 | 75 | 1008.2 |
| 20260903200346 | 44 | 88 | 0.0 | 0.0 | 0.00 | 0.00 | 0.00 | 75 | 1008.2 |
| 20260903195846 | 44 | 88 | 0.0 | 0.0 | 0.00 | 0.00 | 0.00 | 74 | 1008.2 |
| 20260903195346 | 44 | 88 | 0.0 | 0.0 | 0.00 | 0.00 | 0.00 | 73 | 1008.2 |
| 20260903195247 | 44 | 88 | 0.0 | 0.0 | 0.00 | 0.00 | 0.00 | 73 | 1008.2 |
| 20260903194846 | 44 | 88 | 0.0 | 0.0 | 0.00 | 0.00 | 0.00 | 73 | 1008.3 |
| 20260903194346 | 45 | 88 | 0.0 | 0.0 | 0.00 | 0.00 | 0.00 | 72 | 1008.4 |
| 20260903194147 | 45 | 88 | 0.0 | 0.0 | 0.00 | 0.00 | 0.00 | 71 | 1008.3 |
| 20260903193846 | 45 | 88 | 0.0 | 3.0 | 0.00 | 0.00 | 0.00 | 71 | 1008.3 |
| 20260903193346 | 45 | 123 | 0.0 | 3.0 | 0.00 | 0.00 | 0.00 | 71 | 1008.4 |
| 20260903193047 | 45 | 167 | 1.0 | 1.0 | 0.00 | 0.00 | 0.00 | 71 | 1008.3 |
| 20260903192846 | 45 | 230 | 0.0 | 0.0 | 0.00 | 0.00 | 0.00 | 71 | 1008.3 |
| 20260903192346 | 46 | 230 | 0.0 | 4.0 | 0.00 | 0.00 | 0.00 | 70 | 1008.3 |
| 20260903191947 | 46 | 80 | 0.0 | 6.0 | 0.00 | 0.00 | 0.00 | 70 | 1008.3 |
| 20260903191846 | 46 | 111 | 3.0 | 6.0 | 0.00 | 0.00 | 0.00 | 69 | 1008.3 |
| 20260903191346 | 46 | 68 | 1.0 | 4.0 | 0.00 | 0.00 | 0.00 | 69 | 1008.3 |
| 20260903190846 | 46 | 142 | 1.0 | 5.0 | 0.00 | 0.00 | 0.00 | 68 | 1008.3 |
| 20260903190346 | 46 | 119 | 1.0 | 2.0 | 0.00 | 0.00 | 0.00 | 68 | 1008.3 |
| 20260903185846 | 47 | 182 | 0.0 | 4.0 | 0.00 | 0.00 | 0.00 | 67 | 1008.3 |
| 20260903185747 | 47 | 97 | 0.0 | 3.0 | 0.00 | 0.00 | 0.00 | 67 | 1008.2 |
| 20260903185346 | 47 | 136 | 0.0 | 4.0 | 0.00 | 0.00 | 0.00 | 66 | 1008.3 |
| 20260903184846 | 47 | 97 | 1.0 | 4.0 | 0.00 | 0.00 | 0.00 | 66 | 1008.2 |
| 20260903184647 | 47 | 136 | 0.0 | 4.0 | 0.00 | 0.00 | 0.00 | 66 | 1008.3 |
| 20260903184346 | 47 | 127 | 0.0 | 4.0 | 0.00 | 0.00 | 0.00 | 66 | 1008.3 |
| 20260903183846 | 48 | 84 | 0.0 | 2.0 | 0.00 | 0.00 | 0.00 | 65 | 1008.3 |
| 20260903183547 | 48 | 90 | 0.0 | 0.0 | 0.00 | 0.00 | 0.00 | 64 | 1008.3 |
| 20260903183346 | 48 | 90 | 0.0 | 0.0 | 0.00 | 0.00 | 0.00 | 63 | 1008.2 |
| 20260903182846 | 49 | 90 | 0.0 | 3.0 | 0.00 | 0.00 | 0.00 | 62 | 1008.3 |
| 20260903182447 | 50 | 90 | 0.0 | 3.0 | 0.00 | 0.00 | 0.00 | 61 | 1008.3 |
| 20260903182346 | 50 | 112 | 3.0 | 3.0 | 0.00 | 0.00 | 0.00 | 60 | 1008.3 |
| 20260903181846 | 50 | 170 | 1.0 | 5.0 | 0.00 | 0.00 | 0.00 | 60 | 1008.3 |
| 20260903181346 | 50 | 130 | 1.0 | 3.0 | 0.00 | 0.00 | 0.00 | 59 | 1008.3 |
| 20260903180846 | 51 | 201 | 0.0 | 2.0 | 0.00 | 0.00 | 0.00 | 59 | 1008.3 |
| 20260903180346 | 51 | 255 | 2.0 | 2.0 | 0.00 | 0.00 | 0.00 | 58 | 1008.3 |
| 20260903180247 | 51 | 99 | 0.0 | 1.0 | 0.00 | 0.00 | 0.00 | 58 | 1008.3 |
| 20260903175846 | 52 | 161 | 0.0 | 7.0 | 0.00 | 0.00 | 0.00 | 57 | 1008.3 |
| 20260903175346 | 52 | 84 | 0.0 | 4.0 | 0.00 | 0.00 | 0.00 | 57 | 1008.4 |
| 20260903175147 | 52 | 154 | 0.0 | 4.0 | 0.00 | 0.00 | 0.00 | 57 | 1008.4 |
| 20260903174846 | 52 | 111 | 0.0 | 5.0 | 0.00 | 0.00 | 0.00 | 56 | 1008.4 |
| 20260903174346 | 53 | 178 | 0.0 | 2.0 | 0.00 | 0.00 | 0.00 | 56 | 1008.4 |
| 20260903174047 | 53 | 161 | 1.0 | 2.0 | 0.00 | 0.00 | 0.00 | 56 | 1008.4 |
| 20260903173846 | 53 | 56 | 0.0 | 3.0 | 0.00 | 0.00 | 0.00 | 55 | 1008.4 |
| 20260903173346 | 53 | 171 | 1.0 | 3.0 | 0.00 | 0.00 | 0.00 | 55 | 1008.4 |
| 20260903172947 | 53 | 143 | 0.0 | 2.0 | 0.00 | 0.00 | 0.00 | 55 | 1008.4 |
| 20260903172846 | 53 | 143 | 0.0 | 2.0 | 0.00 | 0.00 | 0.00 | 55 | 1008.4 |
| 20260903172346 | 54 | 133 | 0.0 | 2.0 | 0.00 | 0.00 | 0.00 | 54 | 1008.4 |
| 20260903171846 | 54 | 182 | 0.0 | 4.0 | 0.00 | 0.00 | 0.00 | 53 | 1008.5 |
| 20260903171346 | 55 | 132 | 3.0 | 5.0 | 0.00 | 0.00 | 0.00 | 53 | 1008.5 |
| 20260903170846 | 55 | 139 | 0.0 | 4.0 | 0.00 | 0.00 | 0.00 | 52 | 1008.7 |
| 20260903170747 | 55 | 139 | 0.0 | 5.0 | 0.00 | 0.00 | 0.00 | 52 | 1008.7 |
| 20260903170346 | 55 | 82 | 1.0 | 6.0 | 0.00 | 0.00 | 0.00 | 51 | 1008.7 |
| 20260903165846 | 56 | 126 | 3.0 | 4.0 | 0.00 | 0.00 | 0.00 | 51 | 1008.7 |
| 20260903165647 | 56 | 74 | 0.0 | 5.0 | 0.00 | 0.00 | 0.00 | 50 | 1008.8 |
| 20260903165346 | 56 | 143 | 2.0 | 5.0 | 0.00 | 0.00 | 0.00 | 50 | 1008.8 |
| 20260903164846 | 56 | 136 | 2.0 | 5.0 | 0.00 | 0.00 | 0.00 | 50 | 1008.8 |
| 20260903164547 | 56 | 140 | 0.0 | 4.0 | 0.00 | 0.00 | 0.00 | 51 | 1008.8 |
| 20260903164346 | 56 | 140 | 2.0 | 4.0 | 0.00 | 0.00 | 0.00 | 51 | 1008.8 |
| 20260903163846 | 56 | 142 | 0.0 | 4.0 | 0.00 | 0.00 | 0.00 | 50 | 1008.9 |
| 20260903163447 | 57 | 153 | 0.0 | 4.0 | 0.00 | 0.00 | 0.00 | 50 | 1008.9 |
| 20260903163346 | 57 | 153 | 0.0 | 4.0 | 0.00 | 0.00 | 0.00 | 50 | 1008.9 |
| 20260903162846 | 57 | 104 | 0.0 | 0.0 | 0.00 | 0.00 | 0.00 | 50 | 1008.9 |
| 20260903162346 | 57 | 104 | 0.0 | 4.0 | 0.00 | 0.00 | 0.00 | 49 | 1008.9 |
| 20260903161846 | 58 | 243 | 0.0 | 6.0 | 0.00 | 0.00 | 0.00 | 47 | 1008.9 |
| 20260903161346 | 58 | 61 | 0.0 | 3.0 | 0.00 | 0.00 | 0.00 | 47 | 1008.9 |
| 20260903161247 | 58 | 210 | 0.0 | 3.0 | 0.00 | 0.00 | 0.00 | 47 | 1008.9 |
| 20260903160846 | 58 | 146 | 0.0 | 1.0 | 0.00 | 0.00 | 0.00 | 47 | 1009.0 |
| 20260903160346 | 58 | 146 | 0.0 | 5.0 | 0.00 | 0.00 | 0.00 | 47 | 1009.0 |
| 20260903160147 | 58 | 237 | 0.0 | 4.0 | 0.00 | 0.00 | 0.00 | 47 | 1009.0 |
| 20260903155846 | 58 | 158 | 0.0 | 4.0 | 0.00 | 0.00 | 0.00 | 46 | 1009.0 |
| 20260903155347 | 59 | 330 | 0.0 | 3.0 | 0.00 | 0.00 | 0.00 | 44 | 1009.0 |
| 20260903155047 | 59 | 225 | 0.0 | 3.0 | 0.00 | 0.00 | 0.00 | 43 | 1009.0 |
| 20260903154846 | 59 | 296 | 1.0 | 3.0 | 0.00 | 0.00 | 0.00 | 42 | 1009.0 |
| 20260903154346 | 59 | 315 | 0.0 | 3.0 | 0.00 | 0.00 | 0.00 | 42 | 1009.1 |
| 20260903153947 | 60 | 310 | 0.0 | 3.0 | 0.00 | 0.00 | 0.00 | 41 | 1009.1 |
| 20260903153846 | 60 | 310 | 0.0 | 3.0 | 0.00 | 0.00 | 0.00 | 41 | 1009.1 |
| 20260903153346 | 60 | 306 | 0.0 | 4.0 | 0.00 | 0.00 | 0.00 | 42 | 1009.2 |
| 20260903152846 | 60 | 246 | 3.0 | 4.0 | 0.00 | 0.00 | 0.00 | 42 | 1009.2 |
| 20260903152346 | 59 | 272 | 0.0 | 1.0 | 0.00 | 0.00 | 0.00 | 40 | 1009.2 |
| 20260903151846 | 59 | 260 | 0.0 | 6.0 | 0.00 | 0.00 | 0.00 | 39 | 1009.3 |
| 20260903151747 | 60 | 260 | 2.0 | 6.0 | 0.00 | 0.00 | 0.00 | 41 | 1009.3 |
| 20260903151346 | 60 | 327 | 3.0 | 7.0 | 0.00 | 0.00 | 0.00 | 39 | 1009.3 |
| 20260903150846 | 59 | 262 | 0.0 | 5.0 | 0.00 | 0.00 | 0.00 | 39 | 1009.3 |
| 20260903150647 | 59 | 264 | 0.0 | 5.0 | 0.00 | 0.00 | 0.00 | 42 | 1009.4 |
| 20260903150346 | 59 | 292 | 3.0 | 3.0 | 0.00 | 0.00 | 0.00 | 41 | 1009.3 |
| 20260903145846 | 59 | 285 | 2.0 | 4.0 | 0.00 | 0.00 | 0.00 | 38 | 1009.3 |
| 20260903145547 | 59 | 7 | 0.0 | 3.0 | 0.00 | 0.00 | 0.00 | 41 | 1009.4 |
| 20260903145346 | 58 | 7 | 0.0 | 5.0 | 0.00 | 0.00 | 0.00 | 39 | 1009.4 |
| 20260903144846 | 58 | 310 | 0.0 | 4.0 | 0.00 | 0.00 | 0.00 | 42 | 1009.6 |
| 20260903144447 | 58 | 319 | 4.0 | 4.0 | 0.00 | 0.00 | 0.00 | 43 | 1009.6 |
| 20260903144346 | 58 | 322 | 0.0 | 4.0 | 0.00 | 0.00 | 0.00 | 43 | 1009.3 |
| 20260903143846 | 57 | 289 | 0.0 | 2.0 | 0.00 | 0.00 | 0.00 | 43 | 1009.6 |
| 20260903143346 | 57 | 278 | 0.0 | 0.0 | 0.00 | 0.00 | 0.00 | 45 | 1009.7 |
| 20260903142846 | 57 | 278 | 0.0 | 2.0 | 0.00 | 0.00 | 0.00 | 46 | 1009.7 |
| 20260903142346 | 57 | 330 | 0.0 | 3.0 | 0.00 | 0.00 | 0.00 | 47 | 1009.7 |
| 20260903142247 | 57 | 330 | 0.0 | 3.0 | 0.00 | 0.00 | 0.00 | 47 | 1009.7 |
| 20260903141846 | 57 | 243 | 0.0 | 5.0 | 0.00 | 0.00 | 0.00 | 47 | 1009.7 |
| 20260903141346 | 57 | 315 | 0.0 | 4.0 | 0.00 | 0.00 | 0.00 | 46 | 1009.8 |
| 20260903141147 | 57 | 261 | 0.0 | 1.0 | 0.00 | 0.00 | 0.00 | 48 | 1009.8 |
| 20260903140846 | 57 | 261 | 0.0 | 1.0 | 0.00 | 0.00 | 0.00 | 47 | 1009.8 |
| 20260903140346 | 57 | 261 | 0.0 | 0.0 | 0.00 | 0.00 | 0.00 | 47 | 1009.8 |
| 20260903140047 | 57 | 261 | 0.0 | 0.0 | 0.00 | 0.00 | 0.00 | 48 | 1009.8 |
| 20260903135846 | 57 | 261 | 0.0 | 0.0 | 0.00 | 0.00 | 0.00 | 48 | 1009.9 |
| 20260903135346 | 56 | 261 | 0.0 | 0.0 | 0.00 | 0.00 | 0.00 | 49 | 1009.9 |
| 20260903134947 | 56 | 261 | 0.0 | 0.0 | 0.00 | 0.00 | 0.00 | 48 | 1009.9 |
| 20260903134846 | 56 | 261 | 0.0 | 1.0 | 0.00 | 0.00 | 0.00 | 48 | 1009.9 |
| 20260903134346 | 56 | 261 | 0.0 | 4.0 | 0.00 | 0.00 | 0.00 | 48 | 1009.9 |
| 20260903133846 | 56 | 271 | 2.0 | 6.0 | 0.00 | 0.00 | 0.00 | 47 | 1009.9 |
| 20260903133346 | 57 | 323 | 0.0 | 8.0 | 0.00 | 0.00 | 0.00 | 45 | 1010.0 |
| 20260903132846 | 57 | 279 | 0.0 | 4.0 | 0.00 | 0.00 | 0.00 | 46 | 1010.0 |
| 20260903132747 | 57 | 226 | 0.0 | 6.0 | 0.00 | 0.00 | 0.00 | 46 | 1010.0 |
| 20260903132346 | 57 | 320 | 1.0 | 6.0 | 0.00 | 0.00 | 0.00 | 43 | 1009.7 |
| 20260903131846 | 58 | 278 | 0.0 | 4.0 | 0.00 | 0.00 | 0.00 | 48 | 1010.0 |
| 20260903131647 | 57 | 272 | 0.0 | 1.0 | 0.00 | 0.00 | 0.00 | 46 | 1010.0 |
| 20260903131346 | 57 | 326 | 0.0 | 5.0 | 0.00 | 0.00 | 0.00 | 45 | 1010.0 |
| 20260903130846 | 58 | 268 | 0.0 | 0.0 | 0.00 | 0.00 | 0.00 | 45 | 1010.1 |
| 20260903130547 | 58 | 268 | 0.0 | 5.0 | 0.00 | 0.00 | 0.00 | 46 | 1010.0 |
| 20260903130346 | 58 | 268 | 0.0 | 6.0 | 0.00 | 0.00 | 0.00 | 46 | 1010.0 |
| 20260903125846 | 58 | 284 | 5.0 | 5.0 | 0.00 | 0.00 | 0.00 | 44 | 1010.1 |
| 20260903125447 | 58 | 272 | 0.0 | 6.0 | 0.00 | 0.00 | 0.00 | 43 | 1010.1 |
| 20260903125346 | 58 | 292 | 4.0 | 6.0 | 0.00 | 0.00 | 0.00 | 43 | 1010.1 |
| 20260903124846 | 58 | 136 | 1.0 | 7.0 | 0.00 | 0.00 | 0.00 | 43 | 1010.1 |
| 20260903124346 | 58 | 309 | 4.0 | 5.0 | 0.00 | 0.00 | 0.00 | 45 | 1010.1 |
| 20260903123846 | 58 | 29 | 0.0 | 7.0 | 0.00 | 0.00 | 0.00 | 45 | 1010.2 |
| 20260903123346 | 58 | 227 | 1.0 | 6.0 | 0.00 | 0.00 | 0.00 | 44 | 1010.2 |
| 20260903123247 | 58 | 291 | 3.0 | 6.0 | 0.00 | 0.00 | 0.00 | 43 | 1010.1 |
| 20260903122846 | 58 | 275 | 1.0 | 9.0 | 0.00 | 0.00 | 0.00 | 46 | 1010.2 |
| 20260903122346 | 58 | 177 | 0.0 | 6.0 | 0.00 | 0.00 | 0.00 | 48 | 1010.2 |
| 20260903122147 | 57 | 257 | 3.0 | 6.0 | 0.00 | 0.00 | 0.00 | 47 | 1010.2 |
| 20260903121846 | 57 | 292 | 0.0 | 5.0 | 0.00 | 0.00 | 0.00 | 49 | 1010.2 |
| 20260903121346 | 56 | 286 | 0.0 | 1.0 | 0.00 | 0.00 | 0.00 | 51 | 1010.2 |
| 20260903121047 | 56 | 192 | 0.0 | 4.0 | 0.00 | 0.00 | 0.00 | 50 | 1010.3 |
| 20260903120847 | 56 | 192 | 0.0 | 5.0 | 0.00 | 0.00 | 0.00 | 50 | 1010.3 |
| 20260903120347 | 56 | 286 | 0.0 | 3.0 | 0.00 | 0.00 | 0.00 | 49 | 1010.2 |
| 20260903115947 | 57 | 232 | 0.0 | 5.0 | 0.00 | 0.00 | 0.00 | 48 | 1010.2 |
| 20260903115846 | 57 | 250 | 2.0 | 5.0 | 0.00 | 0.00 | 0.00 | 48 | 1010.3 |
| 20260903115347 | 57 | 315 | 0.0 | 0.0 | 0.00 | 0.00 | 0.00 | 49 | 1010.2 |
| 20260903114847 | 57 | 315 | 0.0 | 2.0 | 0.00 | 0.00 | 0.00 | 49 | 1010.3 |
| 20260903114347 | 57 | 285 | 0.0 | 5.0 | 0.00 | 0.00 | 0.00 | 49 | 1010.2 |
| 20260903113847 | 57 | 82 | 0.0 | 3.0 | 0.00 | 0.00 | 0.00 | 49 | 1010.2 |
| 20260903113748 | 56 | 82 | 0.0 | 5.0 | 0.00 | 0.00 | 0.00 | 49 | 1010.2 |
| 20260903113347 | 56 | 300 | 2.0 | 5.0 | 0.00 | 0.00 | 0.00 | 49 | 1010.2 |
| 20260903112847 | 56 | 45 | 0.0 | 3.0 | 0.00 | 0.00 | 0.00 | 50 | 1010.2 |
| 20260903112648 | 56 | 303 | 0.0 | 0.0 | 0.00 | 0.00 | 0.00 | 48 | 1010.2 |
| 20260903112347 | 55 | 303 | 0.0 | 1.0 | 0.00 | 0.00 | 0.00 | 52 | 1010.2 |
| 20260903111847 | 54 | 303 | 0.0 | 0.0 | 0.00 | 0.00 | 0.00 | 51 | 1010.2 |
| 20260903111548 | 54 | 303 | 0.0 | 0.0 | 0.00 | 0.00 | 0.00 | 52 | 1010.2 |
| 20260903111347 | 54 | 303 | 0.0 | 1.0 | 0.00 | 0.00 | 0.00 | 51 | 1010.2 |
| 20260903110847 | 53 | 303 | 1.0 | 6.0 | 0.00 | 0.00 | 0.00 | 49 | 1010.2 |
| 20260903110448 | 54 | 336 | 3.0 | 3.0 | 0.00 | 0.00 | 0.00 | 52 | 1010.2 |
| 20260903110347 | 54 | 74 | 0.0 | 2.0 | 0.00 | 0.00 | 0.00 | 53 | 1010.3 |
| 20260903105847 | 53 | 324 | 0.0 | 7.0 | 0.00 | 0.00 | 0.00 | 49 | 1010.3 |
| 20260903105347 | 55 | 33 | 0.0 | 5.0 | 0.00 | 0.00 | 0.00 | 49 | 1010.3 |
| 20260903104847 | 55 | 18 | 1.0 | 6.0 | 0.00 | 0.00 | 0.00 | 50 | 1010.3 |
| 20260903104347 | 54 | 248 | 0.0 | 4.0 | 0.00 | 0.00 | 0.00 | 52 | 1010.4 |
| 20260903104248 | 54 | 248 | 1.0 | 5.0 | 0.00 | 0.00 | 0.00 | 53 | 1010.4 |
| 20260903103847 | 54 | 240 | 2.0 | 7.0 | 0.00 | 0.00 | 0.00 | 53 | 1010.6 |
| 20260903103347 | 53 | 4 | 0.0 | 5.0 | 0.00 | 0.00 | 0.00 | 53 | 1010.4 |
| 20260903103148 | 53 | 4 | 0.0 | 5.0 | 0.00 | 0.00 | 0.00 | 51 | 1010.6 |
| 20260903102847 | 53 | 120 | 0.0 | 7.0 | 0.00 | 0.00 | 0.00 | 54 | 1010.6 |
| 20260903102347 | 53 | 298 | 0.0 | 5.0 | 0.00 | 0.00 | 0.00 | 54 | 1010.7 |
| 20260903102048 | 53 | 285 | 0.0 | 6.0 | 0.00 | 0.00 | 0.00 | 54 | 1010.7 |
| 20260903101847 | 53 | 313 | 3.0 | 6.0 | 0.00 | 0.00 | 0.00 | 53 | 1010.7 |
| 20260903101347 | 52 | 274 | 0.0 | 6.0 | 0.00 | 0.00 | 0.00 | 57 | 1010.7 |
| 20260903100948 | 51 | 327 | 0.0 | 10.0 | 0.00 | 0.00 | 0.00 | 55 | 1010.7 |
| 20260903100847 | 51 | 326 | 2.0 | 10.0 | 0.00 | 0.00 | 0.00 | 57 | 1010.8 |
| 20260903100347 | 52 | 315 | 0.0 | 4.0 | 0.00 | 0.00 | 0.00 | 57 | 1010.9 |
| 20260903095847 | 52 | 278 | 0.0 | 5.0 | 0.00 | 0.00 | 0.00 | 56 | 1010.9 |
| 20260903095347 | 52 | 338 | 0.0 | 4.0 | 0.00 | 0.00 | 0.00 | 55 | 1010.9 |
| 20260903094847 | 51 | 295 | 0.0 | 6.0 | 0.00 | 0.00 | 0.00 | 57 | 1010.9 |
| 20260903094748 | 51 | 295 | 0.0 | 6.0 | 0.00 | 0.00 | 0.00 | 57 | 1010.9 |
| 20260903094347 | 51 | 80 | 5.0 | 7.0 | 0.00 | 0.00 | 0.00 | 60 | 1010.9 |
| 20260903093847 | 50 | 319 | 3.0 | 6.0 | 0.00 | 0.00 | 0.00 | 60 | 1010.9 |
| 20260903093648 | 50 | 302 | 0.0 | 6.0 | 0.00 | 0.00 | 0.00 | 59 | 1010.9 |
| 20260903093347 | 50 | 333 | 4.0 | 9.0 | 0.00 | 0.00 | 0.00 | 57 | 1011.0 |
| 20260903092847 | 50 | 324 | 0.0 | 5.0 | 0.00 | 0.00 | 0.00 | 59 | 1011.0 |
| 20260903092548 | 49 | 284 | 2.0 | 6.0 | 0.00 | 0.00 | 0.00 | 59 | 1011.0 |
| 20260903092347 | 49 | 286 | 3.0 | 6.0 | 0.00 | 0.00 | 0.00 | 58 | 1011.1 |
| 20260903091847 | 49 | 213 | 0.0 | 9.0 | 0.00 | 0.00 | 0.00 | 60 | 1011.1 |